Time;durP1;ratioP1;P1;durP2;ratioP2;P2;SDS_P1;SDS_P2;PMS_P1;PMS_P2;Temp;Humidity;BMP_temperature;BMP_pressure;BME280_temperature;BME280_humidity;BME280_pressure;Samples;Min_cycle;Max_cycle;Signal;HPM_P1;HPM_P2
2024/01/29 00:00:36;;;;;;;7.60;4.40;;;;;;;0.18;71.98;100885.40;105013;1262;74355;-28
2024/01/29 00:03:04;;;;;;;6.00;3.20;;;;;;;-0.03;72.78;100890.36;105048;1268;72644;-28
2024/01/29 00:05:32;;;;;;;8.30;3.90;;;;;;;0.45;73.21;100887.86;105173;1262;61167;-28
2024/01/29 00:07:59;;;;;;;6.10;4.70;;;;;;;1.23;71.37;100882.36;105131;1263;61184;-28
2024/01/29 00:10:27;;;;;;;6.00;4.00;;;;;;;1.39;70.20;100876.66;105114;1267;73043;-28
2024/01/29 00:12:55;;;;;;;8.90;4.80;;;;;;;1.27;70.11;100876.66;104790;1267;73171;-28
2024/01/29 00:15:22;;;;;;;7.30;4.60;;;;;;;1.10;70.47;100883.88;104978;1267;72453;-28
2024/01/29 00:17:50;;;;;;;7.00;4.00;;;;;;;0.89;70.93;100889.96;105099;1262;61171;-28
2024/01/29 00:28:14;;;;;;;7.10;4.20;;;;;;;0.21;72.90;100885.04;102601;1294;615662;-27
2024/01/29 00:30:42;;;;;;;6.00;2.70;;;;;;;0.06;73.23;100882.60;105198;1265;61171;-28
2024/01/29 00:33:09;;;;;;;6.10;3.30;;;;;;;0.60;72.93;100878.14;104927;1271;61112;-28
2024/01/29 00:35:36;;;;;;;6.30;4.30;;;;;;;1.32;71.34;100880.01;105142;1269;72126;-27
2024/01/29 00:38:03;;;;;;;7.00;4.20;;;;;;;1.49;70.30;100881.14;105142;1269;74225;-28
2024/01/29 00:40:32;;;;;;;8.40;4.30;;;;;;;1.33;70.44;100875.38;104547;1264;440886;-28
2024/01/29 00:43:02;;;;;;;8.20;4.30;;;;;;;1.11;70.52;100875.49;105172;1264;61151;-27
2024/01/29 00:45:29;;;;;;;10.00;5.70;;;;;;;0.85;71.06;100879.59;105236;1267;61148;-28
2024/01/29 00:47:57;;;;;;;9.50;5.50;;;;;;;0.60;71.54;100876.79;105081;1264;72721;-27
2024/01/29 00:50:23;;;;;;;11.70;5.70;;;;;;;0.39;72.23;100875.30;105086;1267;75047;-27
2024/01/29 00:52:50;;;;;;;8.30;4.80;;;;;;;0.19;72.81;100879.77;105178;1264;72456;-27
2024/01/29 00:55:17;;;;;;;12.70;5.40;;;;;;;0.69;72.92;100880.77;105041;1267;61032;-27
2024/01/29 00:57:44;;;;;;;12.00;6.10;;;;;;;1.41;70.78;100885.53;105043;1267;61169;-27
2024/01/29 01:00:11;;;;;;;9.50;5.10;;;;;;;1.49;70.12;100884.05;105238;1265;73053;-28
2024/01/29 01:02:38;;;;;;;9.00;5.50;;;;;;;1.28;70.19;100880.05;105139;1264;74488;-27
2024/01/29 01:05:06;;;;;;;7.50;4.30;;;;;;;1.10;70.34;100883.38;105216;1264;72332;-27
2024/01/29 01:07:33;;;;;;;7.00;4.70;;;;;;;0.87;71.18;100885.70;104985;1264;61158;-28
2024/01/29 01:10:00;;;;;;;6.90;4.40;;;;;;;0.69;71.53;100889.17;105075;1267;61096;-27
2024/01/29 01:12:28;;;;;;;7.40;4.80;;;;;;;0.49;72.22;100890.58;105046;1266;72584;-27
2024/01/29 01:14:54;;;;;;;8.80;5.40;;;;;;;0.30;72.74;100896.56;105641;1255;74396;-27
2024/01/29 01:17:21;;;;;;;5.20;3.60;;;;;;;0.13;73.64;100899.29;105613;1260;72635;-27
2024/01/29 01:19:48;;;;;;;6.30;3.40;;;;;;;0.65;73.45;100902.19;105634;1254;61065;-27
2024/01/29 01:22:15;;;;;;;9.20;4.80;;;;;;;1.43;71.11;100901.94;105686;1255;61142;-27
2024/01/29 01:24:42;;;;;;;9.00;5.00;;;;;;;1.57;69.94;100905.66;105695;1260;73016;-27
2024/01/29 01:27:10;;;;;;;8.70;5.40;;;;;;;1.45;70.00;100904.98;105641;1255;73711;-28
2024/01/29 01:29:37;;;;;;;8.20;4.40;;;;;;;1.23;70.12;100908.89;105588;1254;73244;-27
2024/01/29 01:32:04;;;;;;;9.50;5.30;;;;;;;1.02;70.61;100913.23;105508;1254;61270;-27
2024/01/29 01:34:31;;;;;;;10.00;4.50;;;;;;;0.80;71.56;100913.84;105482;1261;61114;-27
2024/01/29 01:36:58;;;;;;;9.00;4.90;;;;;;;0.61;72.12;100915.58;105632;1255;73153;-27
2024/01/29 01:39:26;;;;;;;10.80;5.80;;;;;;;0.42;72.67;100911.49;105647;1257;74781;-28
2024/01/29 01:41:52;;;;;;;7.80;4.30;;;;;;;0.25;73.43;100912.16;105641;1257;72498;-28
2024/01/29 01:44:19;;;;;;;7.40;3.80;;;;;;;0.61;73.81;100912.33;105624;1258;61316;-27
2024/01/29 01:46:46;;;;;;;13.10;6.60;;;;;;;1.32;71.96;100913.38;105667;1259;61333;-28
2024/01/29 01:49:14;;;;;;;12.70;6.00;;;;;;;1.48;70.84;100908.20;105672;1260;72946;-28
2024/01/29 01:51:41;;;;;;;10.20;5.90;;;;;;;1.34;71.15;100908.90;105645;1261;74321;-27
2024/01/29 01:54:08;;;;;;;10.10;4.40;;;;;;;1.16;71.54;100914.79;105599;1257;72499;-28
2024/01/29 01:56:35;;;;;;;10.30;5.10;;;;;;;0.97;71.90;100917.23;105917;1257;61149;-28
2024/01/29 01:59:03;;;;;;;9.00;4.90;;;;;;;0.65;73.33;100919.47;106004;1256;61170;-27
2024/01/29 02:01:30;;;;;;;10.80;6.30;;;;;;;0.60;73.38;100920.03;105938;1251;73380;-27
2024/01/29 02:03:58;;;;;;;10.80;6.20;;;;;;;0.50;73.88;100917.23;105910;1251;74989;-27
2024/01/29 02:06:25;;;;;;;11.00;5.70;;;;;;;0.37;74.28;100919.91;105935;1253;73120;-27
2024/01/29 02:08:51;;;;;;;11.60;5.30;;;;;;;0.93;74.46;100927.53;105819;1251;61127;-28
2024/01/29 02:11:18;;;;;;;14.90;7.40;;;;;;;1.76;72.79;100936.23;105874;1256;61048;-28
2024/01/29 02:13:45;;;;;;;18.20;8.60;;;;;;;1.99;71.57;100937.94;105812;1251;73040;-27
2024/01/29 02:16:12;;;;;;;14.20;7.20;;;;;;;1.93;71.24;100937.35;105876;1251;74152;-27
2024/01/29 02:18:39;;;;;;;14.20;5.70;;;;;;;1.78;71.37;100938.95;105702;1256;72566;-27
2024/01/29 02:21:06;;;;;;;14.30;5.40;;;;;;;1.53;71.80;100935.52;105889;1251;61096;-28
2024/01/29 02:23:33;;;;;;;17.20;7.10;;;;;;;1.32;72.40;100932.55;105932;1251;61021;-27
2024/01/29 02:26:00;;;;;;;17.40;8.10;;;;;;;1.16;72.99;100933.78;105989;1251;73023;-27
2024/01/29 02:28:27;;;;;;;15.40;8.00;;;;;;;0.98;73.47;100933.47;105984;1251;74346;-27
2024/01/29 02:30:54;;;;;;;14.60;6.20;;;;;;;0.85;74.27;100937.39;105959;1256;72625;-27
2024/01/29 02:33:21;;;;;;;14.80;6.10;;;;;;;1.32;74.56;100941.09;105850;1251;61094;-27
2024/01/29 02:35:49;;;;;;;19.40;8.80;;;;;;;2.00;72.59;100944.77;105657;1257;61100;-28
2024/01/29 02:38:16;;;;;;;20.60;9.10;;;;;;;2.18;71.94;100943.63;105935;1254;72907;-27
2024/01/29 02:40:42;;;;;;;20.10;7.80;;;;;;;2.11;71.63;100951.13;105948;1251;74238;-27
2024/01/29 02:43:10;;;;;;;17.20;7.60;;;;;;;1.74;72.30;100953.21;105914;1251;72681;-27
2024/01/29 02:45:36;;;;;;;22.70;10.30;;;;;;;1.35;73.83;100952.86;105696;1251;61055;-27
2024/01/29 02:48:04;;;;;;;24.60;9.90;;;;;;;1.05;75.49;100949.65;105831;1251;61153;-27
2024/01/29 02:50:31;;;;;;;22.20;9.70;;;;;;;0.71;77.20;100947.45;105830;1257;71765;-27
2024/01/29 02:52:58;;;;;;;19.50;7.50;;;;;;;0.54;78.59;100942.98;105916;1251;74047;-27
2024/01/29 02:55:25;;;;;;;19.90;9.10;;;;;;;1.08;77.85;100945.15;105987;1251;72437;-27
2024/01/29 02:57:52;;;;;;;19.20;6.90;;;;;;;1.80;75.09;100950.73;105973;1251;61165;-26
2024/01/29 03:00:19;;;;;;;20.10;9.00;;;;;;;1.89;73.94;100949.21;105928;1256;61132;-27
2024/01/29 03:02:46;;;;;;;26.60;11.60;;;;;;;1.70;74.39;100949.34;105967;1251;73398;-28
2024/01/29 03:05:13;;;;;;;23.90;8.90;;;;;;;1.48;74.98;100952.70;105914;1251;74407;-27
2024/01/29 03:07:39;;;;;;;22.40;9.60;;;;;;;1.29;75.30;100954.48;105942;1257;72626;-27
2024/01/29 03:10:07;;;;;;;22.50;10.40;;;;;;;1.04;76.74;100950.34;105967;1251;61166;-27
2024/01/29 03:12:34;;;;;;;22.90;10.00;;;;;;;0.93;76.92;100949.43;105720;1251;61084;-26
2024/01/29 03:15:01;;;;;;;18.80;7.70;;;;;;;0.73;78.05;100944.52;105918;1257;72978;-27
2024/01/29 03:17:32;;;;;;;22.90;9.60;;;;;;;1.22;78.04;100938.66;105841;1251;74310;-27
2024/01/29 03:19:59;;;;;;;27.80;11.20;;;;;;;1.82;75.40;100935.27;105842;1255;72476;-27
2024/01/29 03:22:26;;;;;;;31.10;12.30;;;;;;;1.93;74.84;100935.12;105971;1254;61156;-27
2024/01/29 03:24:53;;;;;;;33.50;12.80;;;;;;;1.66;75.09;100936.87;105968;1251;61052;-27
2024/01/29 03:27:20;;;;;;;40.10;13.10;;;;;;;1.39;76.43;100940.85;105877;1251;73140;-27
2024/01/29 03:29:47;;;;;;;35.40;12.70;;;;;;;1.28;76.50;100942.88;105757;1251;74392;-27
2024/01/29 03:32:14;;;;;;;30.10;12.00;;;;;;;1.11;77.10;100938.11;105929;1251;71511;-27
2024/01/29 03:34:44;;;;;;;34.70;14.00;;;;;;;0.89;78.17;100938.88;105805;1254;61160;-26
2024/01/29 03:37:12;;;;;;;22.80;8.80;;;;;;;0.70;79.79;100939.42;105809;1252;61153;-26
2024/01/29 03:39:39;;;;;;;24.40;9.70;;;;;;;1.43;78.55;100938.89;105683;1251;72028;-27
2024/01/29 03:42:06;;;;;;;22.40;10.30;;;;;;;2.10;75.99;100941.02;105646;1257;74424;-27
2024/01/29 03:44:33;;;;;;;29.00;13.30;;;;;;;2.03;75.17;100941.48;105803;1251;72543;-27
2024/01/29 03:46:59;;;;;;;26.90;10.80;;;;;;;1.72;75.91;100943.14;105864;1255;61096;-27
2024/01/29 03:49:26;;;;;;;24.00;10.30;;;;;;;1.54;76.87;100940.81;105844;1257;61063;-27
2024/01/29 03:51:53;;;;;;;28.50;12.20;;;;;;;1.35;77.45;100939.52;105811;1251;73061;-27
2024/01/29 03:54:20;;;;;;;24.30;12.30;;;;;;;1.14;78.33;100943.38;105925;1255;74315;-27
2024/01/29 03:56:47;;;;;;;17.30;7.30;;;;;;;0.71;80.97;100952.23;105844;1251;72574;-27
2024/01/29 03:59:14;;;;;;;22.90;9.30;;;;;;;1.12;80.50;100946.64;105777;1251;61049;-27
2024/01/29 04:01:40;;;;;;;26.10;12.20;;;;;;;1.84;77.61;100943.48;105783;1257;61048;-27
2024/01/29 04:04:10;;;;;;;29.30;12.30;;;;;;;1.76;76.96;100941.70;105793;1251;73002;-27
2024/01/29 04:06:39;;;;;;;22.10;10.40;;;;;;;1.92;76.31;100942.32;105942;1251;74372;-27
2024/01/29 04:09:09;;;;;;;26.00;12.80;;;;;;;1.66;76.86;100937.90;105961;1251;72574;-27
2024/01/29 04:11:36;;;;;;;21.90;9.20;;;;;;;1.52;77.58;100940.17;106007;1251;61044;-27
2024/01/29 04:14:03;;;;;;;22.90;10.30;;;;;;;1.42;77.69;100945.77;105935;1251;62213;-27
2024/01/29 04:16:31;;;;;;;18.80;8.40;;;;;;;1.29;78.23;100948.68;105931;1251;71984;-27
2024/01/29 04:18:57;;;;;;;19.70;9.30;;;;;;;1.66;77.83;100953.15;105680;1251;74640;-27
2024/01/29 04:21:25;;;;;;;30.50;12.80;;;;;;;2.24;76.18;100952.45;105943;1251;72657;-27
2024/01/29 04:23:52;;;;;;;24.10;12.40;;;;;;;2.40;74.74;100953.73;105705;1251;61054;-27
2024/01/29 04:26:19;;;;;;;29.80;12.20;;;;;;;2.30;74.69;100948.92;105891;1252;61054;-27
2024/01/29 04:28:46;;;;;;;27.10;12.30;;;;;;;1.99;75.62;100946.17;105961;1251;72816;-27
2024/01/29 04:31:13;;;;;;;23.70;10.80;;;;;;;1.52;77.33;100946.83;105994;1251;74324;-27
2024/01/29 04:33:43;;;;;;;26.90;11.70;;;;;;;1.38;78.30;100952.49;105739;1251;72525;-27
2024/01/29 04:36:15;;;;;;;22.40;9.90;;;;;;;1.22;79.05;100948.58;105894;1254;61052;-27
2024/01/29 04:38:45;;;;;;;27.30;11.60;;;;;;;1.82;77.96;100951.38;105659;1257;61201;-27
2024/01/29 04:41:21;;;;;;;25.40;12.00;;;;;;;2.34;75.53;100954.50;105907;1251;73807;-27
2024/01/29 04:43:48;;;;;;;22.00;10.10;;;;;;;2.43;74.69;100955.58;105913;1257;74312;-27
2024/01/29 04:46:15;;;;;;;34.70;16.60;;;;;;;2.27;74.84;100959.94;105899;1251;72581;-27
2024/01/29 04:48:42;;;;;;;19.70;9.20;;;;;;;2.00;75.71;100962.75;105772;1251;61156;-27
2024/01/29 04:51:09;;;;;;;25.50;10.30;;;;;;;1.68;76.94;100964.08;105723;1257;61146;-27
2024/01/29 04:53:36;;;;;;;20.60;9.90;;;;;;;1.44;78.15;100963.89;105878;1251;73489;-27
2024/01/29 04:56:03;;;;;;;21.30;9.30;;;;;;;1.12;79.58;100969.74;105940;1257;73213;-27
2024/01/29 04:58:30;;;;;;;23.60;10.60;;;;;;;1.57;79.07;100969.17;105914;1251;72426;-27
2024/01/29 05:00:58;;;;;;;22.40;10.40;;;;;;;2.06;76.48;100966.79;105930;1251;61854;-27
2024/01/29 05:03:26;;;;;;;24.50;12.00;;;;;;;2.12;76.06;100968.92;105819;1251;61132;-27
2024/01/29 05:05:53;;;;;;;27.40;10.90;;;;;;;2.05;76.10;100971.08;105926;1251;72895;-27
2024/01/29 05:08:21;;;;;;;27.10;11.10;;;;;;;1.96;76.30;100972.08;105969;1251;74229;-27
2024/01/29 05:10:47;;;;;;;25.50;10.30;;;;;;;1.72;77.28;100961.45;105967;1256;72609;-26
2024/01/29 05:13:15;;;;;;;27.20;11.70;;;;;;;1.36;78.78;100961.23;105928;1251;61051;-27
2024/01/29 05:15:42;;;;;;;22.10;10.40;;;;;;;1.45;79.19;100967.63;105766;1257;61154;-26
2024/01/29 05:18:09;;;;;;;30.30;14.30;;;;;;;2.15;77.04;100968.34;105850;1251;73877;-27
2024/01/29 05:20:36;;;;;;;29.40;12.60;;;;;;;2.53;74.77;100963.96;105708;1251;74223;-27
2024/01/29 05:23:03;;;;;;;30.00;13.20;;;;;;;2.55;74.40;100964.11;105846;1251;72787;-27
2024/01/29 05:25:31;;;;;;;26.90;12.20;;;;;;;2.28;74.81;100965.92;105686;1251;60924;-27
2024/01/29 05:27:58;;;;;;;35.50;14.90;;;;;;;1.57;77.66;100963.89;105686;1257;61186;-27
2024/01/29 05:30:25;;;;;;;28.70;13.10;;;;;;;1.43;78.85;100966.13;105934;1251;73860;-27
2024/01/29 05:32:52;;;;;;;15.50;7.90;;;;;;;1.10;80.19;100968.91;105811;1256;74620;-27
2024/01/29 05:35:19;;;;;;;23.80;10.80;;;;;;;1.24;79.86;100967.05;105882;1257;72689;-26
2024/01/29 05:37:45;;;;;;;41.90;15.80;;;;;;;1.54;78.30;100969.05;105832;1251;61130;-27
2024/01/29 05:40:12;;;;;;;30.60;12.40;;;;;;;1.58;78.51;100978.27;105835;1251;61161;-27
2024/01/29 05:42:39;;;;;;;41.90;16.60;;;;;;;2.06;77.15;100978.45;105960;1251;73770;-27
2024/01/29 05:45:07;;;;;;;39.40;15.50;;;;;;;2.15;76.25;100977.27;105951;1252;74466;-27
2024/01/29 05:47:34;;;;;;;43.70;17.70;;;;;;;2.05;76.17;100979.13;105894;1251;72939;-27
2024/01/29 05:50:05;;;;;;;64.10;24.80;;;;;;;1.88;76.31;100982.13;105967;1251;60992;-27
2024/01/29 05:52:32;;;;;;;32.90;11.30;;;;;;;1.52;77.85;100987.07;105804;1251;61093;-27
2024/01/29 05:54:59;;;;;;;34.10;14.20;;;;;;;1.94;77.26;100992.33;105864;1251;74432;-27
2024/01/29 05:57:27;;;;;;;127.10;45.50;;;;;;;2.57;74.80;100991.15;105920;1251;74173;-27
2024/01/29 05:59:54;;;;;;;56.70;20.60;;;;;;;2.40;74.76;100990.06;105652;1251;72726;-28
2024/01/29 06:02:21;;;;;;;81.10;23.50;;;;;;;2.50;74.02;100987.31;105934;1251;61175;-27
2024/01/29 06:04:48;;;;;;;52.20;17.50;;;;;;;2.27;74.73;100986.67;105930;1257;61124;-27
2024/01/29 06:07:15;;;;;;;45.70;15.40;;;;;;;2.27;74.44;100986.51;105937;1251;73289;-27
2024/01/29 06:09:42;;;;;;;37.10;16.10;;;;;;;2.13;74.50;100988.44;105699;1256;74311;-27
2024/01/29 06:12:09;;;;;;;38.90;17.60;;;;;;;1.98;74.41;100993.30;105712;1253;72630;-27
2024/01/29 06:14:36;;;;;;;23.40;10.40;;;;;;;1.82;74.68;100993.34;105889;1251;61165;-27
2024/01/29 06:17:03;;;;;;;34.20;14.40;;;;;;;2.34;74.93;100994.11;105686;1251;61153;-27
2024/01/29 06:19:30;;;;;;;42.00;16.30;;;;;;;3.03;73.07;100998.05;105821;1251;73900;-27
2024/01/29 06:21:57;;;;;;;29.30;12.90;;;;;;;3.14;71.79;101000.08;105833;1254;74363;-27
2024/01/29 06:24:24;;;;;;;28.30;12.80;;;;;;;2.98;71.67;100997.81;106000;1251;72440;-27
2024/01/29 06:26:51;;;;;;;29.60;13.10;;;;;;;2.69;72.25;100997.28;105588;1254;61038;-27
2024/01/29 06:29:18;;;;;;;29.40;12.80;;;;;;;2.37;72.88;100996.48;105920;1254;61143;-28
2024/01/29 06:31:45;;;;;;;32.50;14.00;;;;;;;2.13;73.40;100998.55;106004;1251;73635;-28
2024/01/29 06:34:12;;;;;;;27.70;12.50;;;;;;;1.95;73.88;101002.23;105963;1257;74244;-28
2024/01/29 06:36:38;;;;;;;19.70;9.20;;;;;;;1.77;74.51;101005.74;105712;1251;72651;-28
2024/01/29 06:39:07;;;;;;;27.70;11.40;;;;;;;2.22;74.96;101009.36;105847;1251;60977;-28
2024/01/29 06:41:34;;;;;;;38.20;14.90;;;;;;;2.94;73.22;101014.87;105653;1252;61303;-28
2024/01/29 06:44:01;;;;;;;34.60;15.20;;;;;;;3.15;72.35;101014.81;105851;1251;73683;-28
2024/01/29 06:46:28;;;;;;;32.90;14.50;;;;;;;3.07;71.87;101019.95;105817;1256;74360;-28
2024/01/29 06:48:55;;;;;;;28.10;13.10;;;;;;;2.86;71.72;101022.04;105792;1251;72568;-28
2024/01/29 06:51:22;;;;;;;29.10;12.50;;;;;;;2.62;72.24;101022.61;105685;1251;61049;-28
2024/01/29 06:53:50;;;;;;;36.50;14.10;;;;;;;2.38;72.71;101027.48;105725;1255;61252;-28
2024/01/29 06:56:16;;;;;;;33.10;13.80;;;;;;;2.14;72.87;101028.19;105830;1251;73782;-28
2024/01/29 06:58:44;;;;;;;26.30;10.50;;;;;;;1.95;73.60;101031.88;105763;1257;74362;-28
2024/01/29 07:01:11;;;;;;;29.30;12.80;;;;;;;2.39;73.98;101035.50;105754;1251;73070;-28
2024/01/29 07:03:38;;;;;;;33.30;15.20;;;;;;;3.08;72.36;101039.49;105889;1251;61697;-28
2024/01/29 07:06:05;;;;;;;29.40;12.10;;;;;;;3.25;71.65;101043.48;105870;1251;61137;-28
2024/01/29 07:08:32;;;;;;;35.50;13.70;;;;;;;3.11;71.32;101050.42;105892;1251;74319;-28
2024/01/29 07:10:59;;;;;;;27.40;11.20;;;;;;;2.92;71.64;101053.69;105955;1251;73182;-28
2024/01/29 07:13:26;;;;;;;26.70;12.60;;;;;;;2.71;71.90;101054.89;105750;1251;72591;-28
2024/01/29 07:15:53;;;;;;;30.50;12.50;;;;;;;2.54;72.40;101056.04;105834;1251;61139;-28
2024/01/29 07:18:22;;;;;;;25.60;13.00;;;;;;;2.33;72.36;101057.89;105711;1251;61105;-28
2024/01/29 07:20:50;;;;;;;20.10;9.00;;;;;;;2.14;72.94;101062.45;105742;1251;73624;-28
2024/01/29 07:23:17;;;;;;;20.10;9.70;;;;;;;2.57;73.36;101064.71;105786;1251;74312;-28
2024/01/29 07:25:44;;;;;;;26.20;11.30;;;;;;;3.23;71.50;101063.08;105701;1254;72430;-27
2024/01/29 07:28:11;;;;;;;17.90;9.10;;;;;;;3.34;70.52;101064.23;105764;1251;61053;-28
2024/01/29 07:30:38;;;;;;;24.60;11.00;;;;;;;3.21;70.72;101065.69;105666;1251;61236;-28
2024/01/29 07:33:05;;;;;;;24.50;10.20;;;;;;;3.01;71.05;101063.81;105867;1251;73811;-28
2024/01/29 07:35:32;;;;;;;29.50;11.40;;;;;;;2.85;71.40;101073.54;105954;1251;74336;-28
2024/01/29 07:38:00;;;;;;;23.80;11.50;;;;;;;2.71;71.53;101081.82;105923;1254;72503;-28
2024/01/29 07:40:27;;;;;;;25.90;12.10;;;;;;;2.55;71.69;101081.23;105919;1251;61014;-28
2024/01/29 07:42:56;;;;;;;25.30;12.50;;;;;;;2.38;72.07;101081.48;105833;1256;61717;-27
2024/01/29 07:45:25;;;;;;;20.10;8.90;;;;;;;2.20;72.62;101087.73;105609;1251;74016;-28
2024/01/29 07:47:52;;;;;;;24.80;11.00;;;;;;;2.72;72.51;101090.54;105852;1251;74088;-27
2024/01/29 07:50:20;;;;;;;26.20;11.80;;;;;;;3.40;70.84;101095.05;105777;1251;72628;-28
2024/01/29 07:52:47;;;;;;;18.20;8.30;;;;;;;3.50;69.78;101096.23;105676;1251;61169;-28
2024/01/29 07:55:14;;;;;;;133.30;57.60;;;;;;;3.31;69.80;101100.88;105927;1255;61093;-28
2024/01/29 07:57:41;;;;;;;43.40;18.80;;;;;;;3.12;70.15;101101.21;105959;1251;73867;-28
2024/01/29 08:00:09;;;;;;;27.20;13.70;;;;;;;2.95;70.57;101105.79;105972;1251;74330;-28
2024/01/29 08:02:35;;;;;;;23.70;10.90;;;;;;;2.71;70.79;101105.49;105777;1251;71701;-28
2024/01/29 08:05:03;;;;;;;25.60;11.50;;;;;;;2.37;71.02;101102.91;105858;1251;61086;-28
2024/01/29 08:07:30;;;;;;;21.90;8.80;;;;;;;2.18;72.07;101105.41;105997;1253;61704;-28
2024/01/29 08:10:01;;;;;;;20.70;9.00;;;;;;;2.69;72.38;101104.32;105943;1251;72705;-28
2024/01/29 08:12:32;;;;;;;22.50;10.40;;;;;;;3.45;70.74;101105.41;105835;1255;74813;-28
2024/01/29 08:14:59;;;;;;;27.80;12.20;;;;;;;3.58;69.88;101104.48;105892;1251;73040;-28
2024/01/29 08:17:26;;;;;;;20.70;10.10;;;;;;;3.44;69.70;101103.56;105670;1251;61000;-28
2024/01/29 08:19:53;;;;;;;18.70;9.00;;;;;;;3.16;69.74;101105.61;105947;1251;61100;-28
2024/01/29 08:22:20;;;;;;;17.10;9.10;;;;;;;2.95;70.20;101110.25;105976;1251;75358;-28
2024/01/29 08:24:48;;;;;;;21.90;11.20;;;;;;;2.84;70.65;101107.69;105991;1251;75938;-28
2024/01/29 08:27:15;;;;;;;17.00;8.40;;;;;;;2.73;70.91;101107.86;105985;1251;73191;-28
2024/01/29 08:29:42;;;;;;;20.60;9.60;;;;;;;2.59;70.94;101105.35;105830;1251;61163;-26
2024/01/29 08:32:09;;;;;;;13.70;6.70;;;;;;;2.45;71.81;101110.00;105904;1252;61689;-27
2024/01/29 08:34:35;;;;;;;15.10;6.60;;;;;;;2.93;71.40;101110.95;105774;1251;72780;-27
2024/01/29 08:37:03;;;;;;;13.30;7.50;;;;;;;3.62;70.11;101113.33;105877;1251;74759;-27
2024/01/29 08:39:30;;;;;;;15.30;7.00;;;;;;;3.76;68.68;101112.72;105698;1251;73053;-27
2024/01/29 08:41:57;;;;;;;17.30;7.40;;;;;;;3.61;68.59;101113.36;105703;1251;61044;-27
2024/01/29 08:44:25;;;;;;;13.60;6.90;;;;;;;3.46;69.00;101116.23;105754;1257;61117;-27
2024/01/29 08:46:52;;;;;;;13.20;6.50;;;;;;;3.33;69.09;101117.15;106007;1251;73785;-27
2024/01/29 08:49:19;;;;;;;10.90;6.20;;;;;;;3.18;69.12;101121.70;105987;1251;75768;-26
2024/01/29 08:51:46;;;;;;;11.60;6.80;;;;;;;3.00;69.23;101126.64;105962;1251;72862;-27
2024/01/29 08:54:13;;;;;;;11.40;6.50;;;;;;;2.85;69.17;101126.38;105719;1251;61129;-27
2024/01/29 08:56:40;;;;;;;8.90;4.60;;;;;;;2.71;69.60;101123.33;105830;1257;61673;-27
2024/01/29 08:59:07;;;;;;;8.00;4.40;;;;;;;3.21;69.80;101130.56;105960;1250;75591;-28
2024/01/29 09:01:34;;;;;;;12.90;7.00;;;;;;;3.85;67.75;101133.33;105939;1251;73203;-28
2024/01/29 09:04:02;;;;;;;12.90;7.50;;;;;;;4.04;67.18;101138.80;106011;1251;74148;-26
2024/01/29 09:06:29;;;;;;;13.30;6.70;;;;;;;3.95;67.09;101133.31;105977;1251;61787;-28
2024/01/29 09:08:56;;;;;;;16.80;7.40;;;;;;;3.74;67.37;101132.86;105893;1256;61087;-28
2024/01/29 09:11:23;;;;;;;16.40;8.90;;;;;;;3.46;68.21;101134.08;105939;1251;73959;-27
2024/01/29 09:13:50;;;;;;;18.30;8.00;;;;;;;3.27;68.70;101139.40;105977;1251;74503;-28
2024/01/29 09:16:17;;;;;;;16.70;7.90;;;;;;;3.15;68.85;101140.64;105919;1251;72687;-27
2024/01/29 09:18:44;;;;;;;13.50;6.30;;;;;;;3.01;69.00;101135.73;105805;1251;61764;-27
2024/01/29 09:21:11;;;;;;;13.00;5.70;;;;;;;2.84;69.33;101133.25;105855;1256;61551;-27
2024/01/29 09:23:38;;;;;;;16.80;7.20;;;;;;;3.34;69.77;101136.70;105799;1251;73585;-27
2024/01/29 09:26:06;;;;;;;20.60;9.80;;;;;;;4.02;67.66;101135.56;105877;1256;74681;-28
2024/01/29 09:28:34;;;;;;;17.20;8.20;;;;;;;4.27;66.85;101130.23;105810;1254;72569;-27
2024/01/29 09:31:01;;;;;;;19.70;8.90;;;;;;;4.26;66.34;101133.19;105835;1251;61045;-27
2024/01/29 09:33:29;;;;;;;15.30;7.70;;;;;;;4.18;66.40;101136.45;105800;1256;61045;-27
2024/01/29 09:35:56;;;;;;;18.20;10.10;;;;;;;4.02;66.57;101135.07;105830;1251;73787;-28
2024/01/29 09:38:24;;;;;;;15.20;8.20;;;;;;;3.84;67.02;101134.90;105930;1251;74860;-28
2024/01/29 09:40:51;;;;;;;18.90;8.60;;;;;;;3.69;66.65;101129.87;105961;1255;72820;-28
2024/01/29 09:43:18;;;;;;;21.50;8.50;;;;;;;3.47;66.75;101126.33;105942;1254;61055;-28
2024/01/29 09:45:45;;;;;;;22.90;11.80;;;;;;;3.34;68.03;101129.83;105709;1257;61455;-28
2024/01/29 09:48:14;;;;;;;13.10;6.10;;;;;;;3.30;68.19;101131.46;105945;1251;73722;-27
2024/01/29 09:50:43;;;;;;;17.20;7.40;;;;;;;3.80;68.02;101135.84;105913;1251;74576;-28
2024/01/29 09:53:11;;;;;;;13.90;7.80;;;;;;;4.53;66.25;101135.69;105707;1254;71249;-28
2024/01/29 09:55:38;;;;;;;17.50;9.20;;;;;;;4.65;64.79;101139.19;105732;1251;61074;-28
2024/01/29 09:58:05;;;;;;;13.00;7.00;;;;;;;4.50;64.58;101138.32;105878;1256;61414;-27
2024/01/29 10:00:32;;;;;;;15.30;7.70;;;;;;;4.30;65.34;101137.72;105834;1251;74247;-28
2024/01/29 10:03:03;;;;;;;13.90;7.00;;;;;;;4.13;64.66;101136.05;105912;1254;74211;-28
2024/01/29 10:05:31;;;;;;;14.70;8.40;;;;;;;4.00;65.04;101134.41;105918;1257;74063;-28
2024/01/29 10:07:58;;;;;;;12.00;7.70;;;;;;;3.93;65.55;101135.59;105944;1251;60988;-26
2024/01/29 10:10:26;;;;;;;15.10;8.10;;;;;;;3.79;65.23;101137.75;105941;1251;61017;-27
2024/01/29 10:13:03;;;;;;;18.00;8.90;;;;;;;3.66;64.67;101137.15;105835;1251;72672;-27
2024/01/29 10:15:31;;;;;;;13.40;8.00;;;;;;;3.50;65.23;101137.77;105720;1251;73964;-27
2024/01/29 10:17:58;;;;;;;14.00;8.80;;;;;;;3.47;65.47;101141.64;105921;1251;74042;-28
2024/01/29 10:20:25;;;;;;;11.50;6.00;;;;;;;3.37;66.15;101136.30;105956;1251;62270;-28
2024/01/29 10:22:59;;;;;;;21.40;8.00;;;;;;;3.68;65.52;101137.80;105978;1255;61109;-28
2024/01/29 10:25:26;;;;;;;17.30;8.30;;;;;;;4.51;64.01;101136.05;105760;1258;73925;-26
2024/01/29 10:27:54;;;;;;;22.10;11.30;;;;;;;4.79;63.09;101134.05;105735;1251;73232;-28
2024/01/29 10:30:22;;;;;;;19.40;10.00;;;;;;;4.84;62.99;101132.04;105641;1251;72034;-28
2024/01/29 10:32:49;;;;;;;19.20;9.30;;;;;;;4.64;60.77;101129.20;105979;1251;61137;-28
2024/01/29 10:35:16;;;;;;;16.60;9.20;;;;;;;4.40;61.39;101130.98;105914;1251;61727;-28
2024/01/29 10:37:44;;;;;;;16.80;8.40;;;;;;;4.23;61.47;101129.63;105931;1251;74222;-27
2024/01/29 10:40:12;;;;;;;15.10;8.50;;;;;;;4.05;62.26;101128.80;105800;1251;74102;-28
2024/01/29 10:42:40;;;;;;;14.10;7.70;;;;;;;3.91;64.10;101136.14;105831;1251;72584;-28
2024/01/29 10:45:08;;;;;;;16.00;8.30;;;;;;;3.76;64.33;101134.38;105590;1257;61118;-28
2024/01/29 10:47:38;;;;;;;17.50;9.60;;;;;;;3.65;65.19;101135.61;105860;1254;61079;-28
2024/01/29 10:50:05;;;;;;;15.20;8.90;;;;;;;3.59;64.51;101136.94;105913;1256;75089;-28
2024/01/29 10:52:33;;;;;;;14.80;8.60;;;;;;;3.48;64.74;101140.57;105767;1256;73426;-28
2024/01/29 10:55:00;;;;;;;16.30;8.50;;;;;;;3.35;64.72;101136.67;105814;1253;73869;-28
2024/01/29 10:57:28;;;;;;;14.70;8.40;;;;;;;3.24;65.03;101137.22;105698;1251;61048;-28
2024/01/29 10:59:55;;;;;;;10.30;5.00;;;;;;;3.09;65.90;101137.65;105843;1252;61212;-28
2024/01/29 11:02:22;;;;;;;14.60;7.00;;;;;;;3.46;66.31;101136.63;105716;1251;72958;-28
2024/01/29 11:04:50;;;;;;;13.60;7.70;;;;;;;3.97;64.10;101136.01;105821;1256;74267;-28
2024/01/29 11:07:20;;;;;;;15.20;6.80;;;;;;;4.10;62.74;101133.87;105810;1251;72015;-28
2024/01/29 11:09:57;;;;;;;13.80;7.00;;;;;;;4.08;63.44;101128.39;105652;1251;61192;-28
2024/01/29 11:12:24;;;;;;;11.80;6.40;;;;;;;3.99;63.74;101127.36;105727;1258;61374;-28
2024/01/29 11:15:09;;;;;;;14.50;6.90;;;;;;;3.65;64.19;101125.98;105708;1251;75279;-28
2024/01/29 11:17:39;;;;;;;16.90;8.50;;;;;;;3.26;65.15;101125.34;105721;1251;75814;-28
2024/01/29 11:20:12;;;;;;;15.50;7.90;;;;;;;2.91;65.90;101123.70;105683;1251;72576;-28
2024/01/29 11:22:48;;;;;;;19.70;8.70;;;;;;;2.76;66.49;101123.08;105925;1256;61268;-28